Time;durP1;ratioP1;P1;durP2;ratioP2;P2;SDS_P1;SDS_P2;PMS_P1;PMS_P2;Temp;Humidity;BMP_temperature;BMP_pressure;BME280_temperature;BME280_humidity;BME280_pressure;Samples;Min_cycle;Max_cycle;Signal;HPM_P1;HPM_P2
2022/02/12 00:01:04;;;;;;;15.32;5.75;;;;;;;-1.56;100.00;102320.84;7399221;19;20528;-50
2022/02/12 00:03:33;;;;;;;16.70;5.78;;;;;;;-1.65;100.00;102320.66;7403358;19;20491;-56
2022/02/12 00:06:03;;;;;;;26.63;9.20;;;;;;;-1.42;100.00;102313.22;7397799;19;20193;-53
2022/02/12 00:08:33;;;;;;;19.58;7.13;;;;;;;-1.31;100.00;102316.97;7402506;19;20133;-54
2022/02/12 00:11:02;;;;;;;16.70;6.50;;;;;;;-1.57;100.00;102324.09;7398517;19;20194;-50
2022/02/12 00:13:34;;;;;;;22.17;5.75;;;;;;;-1.68;100.00;102330.44;7403006;19;20134;-47
2022/02/12 00:16:04;;;;;;;18.98;6.15;;;;;;;-1.66;100.00;102324.84;7399189;19;20191;-50
2022/02/12 00:18:34;;;;;;;12.18;4.10;;;;;;;-1.62;100.00;102323.56;7402007;19;20217;-52
2022/02/12 00:21:03;;;;;;;9.73;3.97;;;;;;;-1.60;100.00;102327.16;7398274;19;20218;-50
2022/02/12 00:23:33;;;;;;;18.20;5.82;;;;;;;-1.65;100.00;102330.78;7402343;19;20196;-52
2022/02/12 00:26:02;;;;;;;15.10;5.07;;;;;;;-1.75;100.00;102323.75;7397390;19;20203;-49
2022/02/12 00:28:34;;;;;;;22.98;5.40;;;;;;;-1.66;100.00;102326.47;7401683;19;20137;-51
2022/02/12 00:31:04;;;;;;;16.13;4.40;;;;;;;-1.67;100.00;102323.03;7398064;19;20526;-52
2022/02/12 00:33:33;;;;;;;11.13;4.82;;;;;;;-1.64;100.00;102318.31;7402279;19;20467;-53
2022/02/12 00:36:04;;;;;;;15.00;5.30;;;;;;;-1.68;100.00;102322.84;7398053;19;20209;-51
2022/02/12 00:38:34;;;;;;;19.35;4.60;;;;;;;-1.64;100.00;102312.38;7401331;19;20137;-51
2022/02/12 00:41:05;;;;;;;16.23;5.05;;;;;;;-1.52;100.00;102303.66;7398118;19;20256;-52
2022/02/12 00:43:37;;;;;;;15.88;4.95;;;;;;;-1.57;100.00;102311.44;7401607;19;20128;-49
2022/02/12 00:46:07;;;;;;;17.30;5.35;;;;;;;-1.60;100.00;102311.09;7397350;19;20204;-49
2022/02/12 00:48:37;;;;;;;16.98;4.93;;;;;;;-1.61;100.00;102314.31;7400679;19;20138;-49
2022/02/12 00:51:08;;;;;;;23.20;5.53;;;;;;;-1.69;100.00;102308.41;7396826;19;20208;-49
2022/02/12 00:53:37;;;;;;;15.65;5.75;;;;;;;-1.68;100.00;102300.06;7401484;19;20130;-54
2022/02/12 00:56:07;;;;;;;15.35;5.40;;;;;;;-1.60;100.00;102295.91;7396815;19;20190;-51
2022/02/12 00:58:39;;;;;;;17.85;5.25;;;;;;;-1.58;100.00;102302.94;7400109;19;20197;-52
2022/02/12 01:01:09;;;;;;;14.15;4.53;;;;;;;-1.57;100.00;102299.69;7396933;19;20196;-49
2022/02/12 01:03:38;;;;;;;18.92;4.68;;;;;;;-1.55;100.00;102295.69;7401191;19;20141;-52
2022/02/12 01:06:08;;;;;;;14.65;4.28;;;;;;;-1.50;100.00;102302.19;7396728;19;20190;-53
2022/02/12 01:08:38;;;;;;;12.02;4.45;;;;;;;-1.45;100.00;102296.78;7398265;19;20586;-50
2022/02/12 01:11:07;;;;;;;17.38;4.20;;;;;;;-1.37;100.00;102298.53;7396676;19;20512;-48
2022/02/12 01:13:39;;;;;;;13.00;4.95;;;;;;;-1.47;100.00;102299.13;7400969;19;20142;-51
2022/02/12 01:16:09;;;;;;;18.50;4.97;;;;;;;-1.52;100.00;102290.09;7397259;19;20652;-52
2022/02/12 01:18:38;;;;;;;15.70;5.25;;;;;;;-1.44;100.00;102290.97;7400309;19;20127;-52
2022/02/12 01:21:08;;;;;;;14.23;4.97;;;;;;;-1.48;100.00;102297.31;7395940;19;20194;-54
2022/02/12 01:23:38;;;;;;;13.13;4.78;;;;;;;-1.59;100.00;102300.25;7400526;19;20129;-48
2022/02/12 01:26:07;;;;;;;12.40;4.60;;;;;;;-1.55;100.00;102293.16;7395758;19;20192;-52
2022/02/12 01:28:39;;;;;;;14.77;5.63;;;;;;;-1.59;100.00;102300.25;7399821;19;20140;-48
2022/02/12 01:31:09;;;;;;;18.45;3.97;;;;;;;-1.60;100.00;102295.91;7396005;19;20645;-52
2022/02/12 01:33:38;;;;;;;11.60;3.95;;;;;;;-1.59;100.00;102291.00;7400370;19;20483;-57
2022/02/12 01:36:08;;;;;;;8.88;4.68;;;;;;;-1.69;100.00;102295.75;7395180;19;20195;-55
2022/02/12 01:38:37;;;;;;;13.55;4.75;;;;;;;-1.70;100.00;102299.00;7399179;19;20140;-52
2022/02/12 01:41:07;;;;;;;15.77;3.90;;;;;;;-1.77;100.00;102294.84;7395983;19;20361;-51
2022/02/12 01:43:39;;;;;;;14.85;4.50;;;;;;;-1.83;100.00;102295.03;7399439;19;20140;-54
2022/02/12 01:46:09;;;;;;;9.48;3.78;;;;;;;-1.87;100.00;102303.00;7394893;19;20194;-53
2022/02/12 01:48:42;;;;;;;20.08;4.63;;;;;;;-1.92;100.00;102296.50;7398922;19;20186;-51
2022/02/12 01:51:12;;;;;;;13.43;3.83;;;;;;;-1.87;100.00;102294.47;7394543;19;20199;-52
2022/02/12 01:53:42;;;;;;;12.20;4.18;;;;;;;-1.79;100.00;102291.25;7399446;19;20138;-50
2022/02/12 01:56:11;;;;;;;12.90;4.45;;;;;;;-1.82;100.00;102296.84;7394934;19;20539;-53
2022/02/12 01:58:43;;;;;;;22.80;4.97;;;;;;;-1.83;100.00;102287.44;7398334;19;20505;-50
2022/02/12 02:01:13;;;;;;;11.55;4.80;;;;;;;-1.74;100.00;102282.56;7394830;19;20196;-52
2022/02/12 02:03:42;;;;;;;10.70;4.53;;;;;;;-1.79;100.00;102283.66;7398242;19;20134;-52
2022/02/12 02:06:12;;;;;;;11.43;3.95;;;;;;;-1.80;100.00;102279.31;7394220;19;20197;-50
2022/02/12 02:08:43;;;;;;;12.52;4.47;;;;;;;-1.80;100.00;102275.13;7398040;19;20142;-56
2022/02/12 02:11:15;;;;;;;12.50;3.97;;;;;;;-1.80;100.00;102270.06;7394894;19;20554;-51
2022/02/12 02:13:47;;;;;;;17.60;4.75;;;;;;;-1.83;100.00;102268.81;7398564;19;20139;-52
2022/02/12 02:16:17;;;;;;;17.48;4.80;;;;;;;-1.75;100.00;102272.25;7393753;19;20192;-52
2022/02/12 02:18:47;;;;;;;17.83;4.97;;;;;;;-1.73;100.00;102259.06;7397317;19;20140;-50
2022/02/12 02:21:17;;;;;;;17.30;4.57;;;;;;;-1.77;100.00;102249.28;7392809;19;20198;-54
2022/02/12 02:23:50;;;;;;;11.00;4.40;;;;;;;-1.73;100.00;102248.00;7394420;19;20216;-54
2022/02/12 02:26:19;;;;;;;19.13;4.70;;;;;;;-1.69;100.00;102253.59;7390422;19;20193;-49
2022/02/12 02:28:50;;;;;;;15.30;4.68;;;;;;;-1.68;100.00;102254.50;7392886;19;20130;-54
2022/02/12 02:31:19;;;;;;;9.70;4.45;;;;;;;-1.66;100.00;102253.97;7389602;19;20187;-52
2022/02/12 02:33:54;;;;;;;16.60;4.72;;;;;;;-1.65;100.00;102247.25;7392808;19;20133;-51
2022/02/12 02:36:23;;;;;;;13.63;5.38;;;;;;;-1.26;100.00;102233.91;7389484;19;20182;-53
2022/02/12 02:38:55;;;;;;;14.40;4.97;;;;;;;-0.63;100.00;102223.91;7392669;19;20163;-54
2022/02/12 02:41:25;;;;;;;17.60;6.72;;;;;;;-0.29;100.00;102225.09;7389008;19;20197;-50
2022/02/12 02:43:55;;;;;;;20.52;7.78;;;;;;;-0.47;100.00;102241.75;7394935;19;20141;-51
2022/02/12 02:46:24;;;;;;;20.15;6.45;;;;;;;-0.65;100.00;102241.53;7390738;19;20186;-51
2022/02/12 02:48:54;;;;;;;19.35;6.63;;;;;;;-0.90;100.00;102246.38;7394033;19;20172;-52
2022/02/12 02:56:50;;;;;;;24.08;5.20;;;;;;;-0.72;100.00;102259.31;7393412;19;20534;-57
2022/02/12 02:59:20;;;;;;;11.57;4.90;;;;;;;-1.15;100.00;102271.50;7396454;19;20225;-53
2022/02/12 03:01:52;;;;;;;16.00;5.55;;;;;;;-1.25;100.00;102263.56;7391794;19;20189;-55
2022/02/12 03:04:22;;;;;;;14.68;4.53;;;;;;;-1.15;100.00;102276.56;7397196;19;20133;-52
2022/02/12 03:06:52;;;;;;;18.02;5.68;;;;;;;-1.37;100.00;102274.09;7392704;19;20258;-51
2022/02/12 03:09:24;;;;;;;15.23;5.07;;;;;;;-1.47;100.00;102280.47;7395721;19;20618;-49
2022/02/12 03:11:55;;;;;;;16.67;4.90;;;;;;;-1.38;100.00;102261.28;7393074;19;20196;-47
2022/02/12 03:14:24;;;;;;;19.60;5.25;;;;;;;-0.87;100.00;102253.44;7397153;19;20127;-52
2022/02/12 03:16:54;;;;;;;9.15;4.55;;;;;;;-1.22;100.00;102257.22;7393455;19;20208;-47
2022/02/12 03:19:23;;;;;;;20.98;4.78;;;;;;;-1.12;100.00;102253.22;7395206;19;20167;-55
2022/02/12 03:21:53;;;;;;;13.77;4.47;;;;;;;-1.24;100.00;102248.56;7391556;19;20200;-49
2022/02/12 03:24:25;;;;;;;11.30;4.35;;;;;;;-1.26;100.00;102242.44;7395623;19;20137;-53
2022/02/12 03:26:54;;;;;;;15.43;4.32;;;;;;;-1.31;100.00;102248.59;7392395;19;20319;-54
2022/02/12 03:29:24;;;;;;;13.27;4.55;;;;;;;-0.78;100.00;102231.63;7395591;19;20165;-52
2022/02/12 03:31:53;;;;;;;12.00;4.85;;;;;;;-0.30;100.00;102243.59;7397864;19;20522;-51
2022/02/12 03:34:23;;;;;;;12.77;4.57;;;;;;;-0.19;100.00;102249.84;7404146;19;20126;-52
2022/02/12 03:36:52;;;;;;;13.95;5.38;;;;;;;-0.86;100.00;102271.31;7399436;19;20196;-49
2022/02/12 03:39:24;;;;;;;14.10;4.70;;;;;;;-0.89;100.00;102272.63;7402309;19;20173;-55
2022/02/12 03:41:54;;;;;;;23.13;4.70;;;;;;;-0.44;100.00;102263.28;7399762;19;20650;-55
2022/02/12 03:44:23;;;;;;;12.73;4.80;;;;;;;-0.47;100.00;102257.84;7403665;19;20141;-54
2022/02/12 03:46:53;;;;;;;12.73;4.40;;;;;;;-0.55;100.00;102268.78;7398027;19;20534;-52
2022/02/12 03:49:22;;;;;;;12.23;4.13;;;;;;;-0.65;100.00;102281.16;7401527;19;20158;-53
2022/02/12 03:51:52;;;;;;;22.85;4.90;;;;;;;-0.69;100.00;102283.38;7398714;19;20190;-52
2022/02/12 03:54:21;;;;;;;8.65;4.20;;;;;;;-0.95;100.00;102280.44;7403345;19;20122;-51
2022/02/12 03:56:53;;;;;;;18.40;4.45;;;;;;;-0.53;100.00;102281.66;7398856;19;20201;-52
2022/02/12 03:59:23;;;;;;;10.73;4.47;;;;;;;-0.85;100.00;102287.44;7401582;19;20162;-51
2022/02/12 04:01:52;;;;;;;18.95;4.65;;;;;;;-0.74;100.00;102287.03;7399295;19;20191;-55
2022/02/12 04:04:22;;;;;;;17.73;4.10;;;;;;;-0.72;100.00;102285.56;7403191;19;20123;-51
2022/02/12 04:06:51;;;;;;;16.98;4.45;;;;;;;-0.59;100.00;102284.38;7396340;19;20217;-55
2022/02/12 04:09:23;;;;;;;10.75;3.80;;;;;;;-0.78;100.00;102295.00;7401425;19;20177;-51
2022/02/12 04:11:55;;;;;;;19.25;4.90;;;;;;;-0.32;100.00;102285.63;7399176;19;20200;-54
2022/02/12 04:14:24;;;;;;;20.42;8.65;;;;;;;-0.59;100.00;102297.97;7402798;19;20133;-52
2022/02/12 04:16:54;;;;;;;6.82;4.43;;;;;;;-0.82;100.00;102300.50;7399169;19;20190;-53
2022/02/12 04:19:25;;;;;;;38.33;17.45;;;;;;;-0.60;100.00;102295.28;7400949;19;20614;-55
2022/02/12 04:21:55;;;;;;;17.10;6.15;;;;;;;-0.83;100.00;102302.09;7397565;19;20196;-53
2022/02/12 04:24:26;;;;;;;34.28;14.68;;;;;;;-0.53;100.00;102292.69;7402667;19;20130;-52
2022/02/12 04:26:58;;;;;;;22.70;7.43;;;;;;;-0.25;100.00;102292.31;7397982;19;20201;-56
2022/02/12 04:29:29;;;;;;;12.88;5.70;;;;;;;-0.46;100.00;102297.69;7400556;19;20158;-56
2022/02/12 04:31:58;;;;;;;29.48;9.32;;;;;;;-0.20;100.00;102294.59;7398793;19;20190;-54
2022/02/12 04:34:29;;;;;;;28.50;10.38;;;;;;;-0.19;100.00;102288.81;7402402;19;20131;-55
2022/02/12 04:36:59;;;;;;;19.40;7.32;;;;;;;-0.10;100.00;102281.28;7396829;19;20197;-56
2022/02/12 04:39:30;;;;;;;17.65;8.57;;;;;;;-0.27;100.00;102292.13;7399856;19;20170;-54
2022/02/12 04:42:11;;;;;;;23.33;7.97;;;;;;;-0.12;100.00;102280.22;7397722;19;20201;-51
2022/02/12 04:44:41;;;;;;;29.77;10.80;;;;;;;0.33;100.00;102285.06;7401975;19;20126;-54
2022/02/12 04:47:11;;;;;;;32.30;9.10;;;;;;;0.10;100.00;102293.63;7396731;19;20194;-55
2022/02/12 04:49:41;;;;;;;23.83;9.30;;;;;;;0.29;100.00;102293.06;7399807;19;20162;-52
2022/02/12 04:52:13;;;;;;;20.55;7.95;;;;;;;0.54;100.00;102300.78;7397051;19;20202;-51
2022/02/12 04:54:43;;;;;;;25.38;8.65;;;;;;;-0.07;100.00;102306.09;7401315;19;20127;-47
2022/02/12 04:57:16;;;;;;;19.45;4.40;;;;;;;-0.29;100.00;102303.75;7397160;19;20186;-51
2022/02/12 04:59:45;;;;;;;17.02;5.18;;;;;;;-0.11;100.00;102293.81;7399625;19;20618;-50
2022/02/12 05:02:15;;;;;;;14.15;5.03;;;;;;;-0.15;100.00;102300.19;7397562;19;20194;-54
2022/02/12 05:04:44;;;;;;;16.25;5.00;;;;;;;-0.09;100.00;102292.34;7401166;19;20142;-52
2022/02/12 05:07:14;;;;;;;20.02;6.25;;;;;;;-0.17;100.00;102291.50;7395728;19;20519;-55
2022/02/12 05:09:44;;;;;;;22.45;6.45;;;;;;;0.20;100.00;102281.94;7398974;19;20170;-52
2022/02/12 05:12:16;;;;;;;15.38;5.32;;;;;;;0.24;100.00;102284.03;7396722;19;20257;-51
2022/02/12 05:14:46;;;;;;;15.95;5.10;;;;;;;-0.04;100.00;102296.28;7400673;19;20130;-52
2022/02/12 05:17:15;;;;;;;13.02;4.65;;;;;;;-0.34;100.00;102295.63;7397493;19;20539;-56
2022/02/12 05:19:46;;;;;;;17.67;5.00;;;;;;;-0.31;100.00;102282.41;7398732;19;20167;-55
2022/02/12 05:22:20;;;;;;;20.92;5.20;;;;;;;-0.01;100.00;102278.84;7395611;19;20182;-54
2022/02/12 05:24:50;;;;;;;14.23;5.47;;;;;;;0.30;100.00;102277.09;7399606;19;20135;-51
2022/02/12 05:27:22;;;;;;;17.17;5.53;;;;;;;-0.09;100.00;102289.81;7396019;19;20200;-50
2022/02/12 05:29:51;;;;;;;12.50;5.40;;;;;;;-0.18;100.00;102283.00;7398904;19;20162;-54
2022/02/12 05:32:21;;;;;;;14.55;5.85;;;;;;;0.20;100.00;102284.47;7396557;19;20182;-54
2022/02/12 05:34:50;;;;;;;18.20;5.90;;;;;;;0.38;100.00;102273.75;7399724;19;20137;-53
2022/02/12 05:37:20;;;;;;;16.05;6.00;;;;;;;0.57;100.00;102275.72;7396354;19;20652;-55
2022/02/12 05:39:49;;;;;;;15.77;5.45;;;;;;;0.48;100.00;102269.66;7397924;19;20166;-53
2022/02/12 05:42:21;;;;;;;11.07;5.45;;;;;;;0.44;100.00;102282.75;7396130;19;20194;-54
2022/02/12 05:44:53;;;;;;;16.33;5.57;;;;;;;0.38;100.00;102278.84;7399860;19;20127;-54
2022/02/12 05:47:22;;;;;;;19.73;7.00;;;;;;;-0.08;100.00;102291.59;7395501;19;20186;-50
2022/02/12 05:49:52;;;;;;;19.50;6.93;;;;;;;0.22;100.00;102277.91;7397440;19;20166;-50
2022/02/12 05:52:21;;;;;;;22.65;7.40;;;;;;;0.02;100.00;102274.13;7395159;19;20196;-50
2022/02/12 05:54:51;;;;;;;20.90;8.13;;;;;;;0.03;100.00;102278.47;7398340;19;20123;-55
2022/02/12 05:57:23;;;;;;;16.55;5.97;;;;;;;0.07;100.00;102275.53;7395604;19;20193;-54
2022/02/12 05:59:52;;;;;;;15.38;6.03;;;;;;;0.01;100.00;102269.78;7397382;19;20163;-55
2022/02/12 06:02:22;;;;;;;17.90;6.63;;;;;;;-0.17;100.00;102279.72;7394042;19;20261;-52
2022/02/12 06:04:52;;;;;;;18.45;6.93;;;;;;;-0.10;100.00;102272.78;7399705;19;20484;-55
2022/02/12 06:07:21;;;;;;;17.63;6.00;;;;;;;-0.27;100.00;102284.50;7394816;19;20197;-55
2022/02/12 06:09:51;;;;;;;16.58;5.93;;;;;;;-0.64;100.00;102286.41;7396557;19;20174;-53
2022/02/12 06:12:23;;;;;;;26.38;6.13;;;;;;;-0.62;100.00;102276.47;7396245;19;20186;-50
2022/02/12 06:14:54;;;;;;;18.05;6.57;;;;;;;-0.84;100.00;102276.56;7399130;19;20165;-55
2022/02/12 06:17:24;;;;;;;14.93;6.10;;;;;;;-0.93;100.00;102275.56;7394758;19;20188;-52
2022/02/12 06:19:54;;;;;;;18.35;7.05;;;;;;;-1.03;100.00;102259.31;7397261;19;20167;-52
2022/02/12 06:22:24;;;;;;;28.40;6.60;;;;;;;-1.05;100.00;102257.31;7394366;19;20190;-54
2022/02/12 06:24:53;;;;;;;17.65;6.75;;;;;;;-1.00;100.00;102244.47;7398983;19;20587;-55
2022/02/12 06:27:25;;;;;;;19.58;6.45;;;;;;;-0.85;100.00;102236.75;7393273;19;20197;-50
2022/02/12 06:29:55;;;;;;;17.50;6.55;;;;;;;-0.84;100.00;102231.88;7396002;19;20172;-54
2022/02/12 06:32:25;;;;;;;21.17;7.75;;;;;;;-1.10;100.00;102234.00;7392939;19;20186;-56
2022/02/12 06:34:56;;;;;;;18.95;7.47;;;;;;;-1.22;100.00;102234.41;7398360;19;20537;-49
2022/02/12 06:37:25;;;;;;;24.75;7.30;;;;;;;-1.25;100.00;102229.03;7391774;19;20189;-47
2022/02/12 06:39:55;;;;;;;21.17;8.60;;;;;;;-1.02;100.00;102227.28;7396546;19;20524;-53
2022/02/12 06:42:27;;;;;;;21.63;8.20;;;;;;;-0.98;100.00;102221.81;7392732;19;20186;-55
2022/02/12 06:44:57;;;;;;;23.08;10.20;;;;;;;-1.13;100.00;102216.81;7397925;19;20139;-51
2022/02/12 06:47:26;;;;;;;16.70;7.43;;;;;;;-1.25;100.00;102218.91;7396619;19;20593;-49
2022/02/12 06:49:56;;;;;;;14.63;7.78;;;;;;;-1.32;100.00;102211.34;7395612;19;20176;-51
2022/02/12 06:52:25;;;;;;;18.92;7.15;;;;;;;-1.43;100.00;102209.22;7393327;19;20195;-56
2022/02/12 06:54:56;;;;;;;20.20;7.20;;;;;;;-1.42;100.00;102203.41;7397701;19;20133;-54
2022/02/12 06:57:28;;;;;;;20.50;7.00;;;;;;;-1.41;100.00;102200.16;7394081;19;20186;-54
2022/02/12 06:59:58;;;;;;;24.88;7.30;;;;;;;-1.42;100.00;102203.41;7396316;19;20163;-54
2022/02/12 07:02:27;;;;;;;23.80;7.03;;;;;;;-1.55;100.00;102202.03;7394195;19;20182;-52
2022/02/12 07:04:59;;;;;;;18.88;7.85;;;;;;;-1.62;100.00;102194.47;7396429;19;20127;-53
2022/02/12 07:07:29;;;;;;;20.95;7.22;;;;;;;-1.62;100.00;102204.59;7396083;19;20182;-52
2022/02/12 07:09:58;;;;;;;17.77;7.93;;;;;;;-1.57;100.00;102190.84;7395340;19;20265;-49
2022/02/12 07:12:31;;;;;;;21.40;8.40;;;;;;;-1.56;100.00;102187.56;7396422;19;20174;-47
2022/02/12 07:15:00;;;;;;;18.38;6.80;;;;;;;-1.54;100.00;102186.09;7397641;19;20123;-53
2022/02/12 07:17:30;;;;;;;23.40;7.90;;;;;;;-1.53;100.00;102179.41;7396314;19;20622;-54
2022/02/12 07:20:03;;;;;;;19.27;7.07;;;;;;;-1.56;100.00;102179.97;7391699;19;20226;-54
2022/02/12 07:22:33;;;;;;;12.00;6.20;;;;;;;-1.53;100.00;102175.25;7395690;19;20506;-51
2022/02/12 07:25:02;;;;;;;20.75;7.70;;;;;;;-1.53;100.00;102171.81;7389354;19;20137;-50
2022/02/12 07:27:35;;;;;;;16.55;6.70;;;;;;;-1.44;100.00;102169.44;7394157;19;20236;-57
2022/02/12 07:30:05;;;;;;;21.05;6.20;;;;;;;-1.38;100.00;102171.00;7387574;19;20492;-53
2022/02/12 07:32:34;;;;;;;14.27;6.47;;;;;;;-1.35;100.00;102180.59;7392687;19;20145;-55
2022/02/12 07:35:04;;;;;;;14.02;6.05;;;;;;;-1.31;100.00;102175.16;7389407;19;20137;-53
2022/02/12 07:37:33;;;;;;;16.88;6.05;;;;;;;-1.27;100.00;102178.91;7392110;19;20153;-53
2022/02/12 07:40:03;;;;;;;22.02;8.20;;;;;;;-1.12;100.00;102184.81;7384221;19;20614;-51
2022/02/12 07:42:36;;;;;;;16.00;5.15;;;;;;;-0.98;100.00;102174.56;7391861;19;20123;-52
2022/02/12 07:45:06;;;;;;;19.05;5.30;;;;;;;-1.03;100.00;102180.75;7392146;19;20520;-51
2022/02/12 07:47:36;;;;;;;15.90;5.70;;;;;;;-0.91;100.00;102180.31;7391879;19;20127;-50
2022/02/12 07:50:07;;;;;;;22.60;7.93;;;;;;;-0.92;100.00;102178.53;7386235;19;20161;-51
2022/02/12 07:52:36;;;;;;;52.20;19.95;;;;;;;-0.71;100.00;102177.47;7391676;19;20133;-52
2022/02/12 07:55:06;;;;;;;45.85;18.92;;;;;;;-0.66;100.00;102181.41;7391895;19;20126;-53
2022/02/12 07:57:39;;;;;;;18.02;5.00;;;;;;;-0.59;100.00;102185.50;7395649;19;20154;-53
2022/02/12 08:00:10;;;;;;;20.90;7.25;;;;;;;-0.22;100.00;102183.53;7389945;19;20163;-51
2022/02/12 08:02:39;;;;;;;19.10;5.53;;;;;;;-0.28;100.00;102188.84;7395327;19;20127;-53
2022/02/12 08:05:10;;;;;;;16.80;5.25;;;;;;;-0.37;100.00;102187.88;7392183;19;20123;-54
2022/02/12 08:07:40;;;;;;;17.08;4.45;;;;;;;-0.18;100.00;102191.66;7391443;19;20496;-50
2022/02/12 08:12:57;;;;;;;15.30;5.35;;;;;;;-0.07;100.00;102204.59;7396221;19;20137;-52
2022/02/12 08:15:28;;;;;;;33.35;6.47;;;;;;;0.05;100.00;102203.38;7391369;19;20264;-55
2022/02/12 08:17:58;;;;;;;17.45;4.53;;;;;;;0.18;100.00;102217.38;7397303;19;20190;-52
2022/02/12 08:20:27;;;;;;;16.90;5.47;;;;;;;0.17;100.00;102220.66;7391870;19;20197;-52
2022/02/12 08:22:57;;;;;;;14.00;3.17;;;;;;;0.10;100.00;102229.28;7399494;19;20472;-55
2022/02/12 08:25:27;;;;;;;12.18;4.15;;;;;;;0.26;100.00;102237.78;7393330;19;20681;-55
2022/02/12 08:27:59;;;;;;;16.75;2.85;;;;;;;0.14;100.00;102246.63;7402217;19;20461;-52
2022/02/12 08:30:29;;;;;;;22.95;7.05;;;;;;;0.26;100.00;102255.56;7391758;19;20209;-57
2022/02/12 08:32:58;;;;;;;11.73;2.50;;;;;;;0.35;100.00;102258.19;7398678;19;20129;-53
2022/02/12 08:35:48;;;;;;;11.60;3.78;;;;;;;0.43;100.00;102276.78;7395442;19;20194;-51
2022/02/12 08:38:17;;;;;;;11.63;3.03;;;;;;;0.40;100.00;102282.44;7397538;19;20126;-50
2022/02/12 08:40:47;;;;;;;10.63;2.28;;;;;;;0.39;100.00;102284.81;7392943;19;20200;-55
2022/02/12 08:43:19;;;;;;;44.00;10.52;;;;;;;0.45;100.00;102284.56;7398265;19;20469;-54
2022/02/12 08:45:49;;;;;;;8.63;2.38;;;;;;;0.56;100.00;102284.06;7397228;19;20190;-53
2022/02/12 08:48:18;;;;;;;17.40;3.33;;;;;;;0.61;100.00;102290.53;7397268;19;20198;-57
2022/02/12 08:50:48;;;;;;;14.25;2.90;;;;;;;0.69;100.00;102293.91;7391883;19;20209;-54
2022/02/12 08:53:17;;;;;;;10.55;1.77;;;;;;;0.68;100.00;102284.50;7397785;19;20129;-56
2022/02/12 08:55:47;;;;;;;11.48;3.42;;;;;;;0.81;100.00;102294.28;7394142;19;20186;-57
2022/02/12 08:58:19;;;;;;;11.30;2.08;;;;;;;0.85;100.00;102296.44;7396906;19;20123;-54
2022/02/12 09:00:48;;;;;;;14.52;3.97;;;;;;;0.93;100.00;102298.13;7392561;19;20196;-55
2022/02/12 09:03:19;;;;;;;10.80;3.13;;;;;;;0.97;100.00;102303.56;7397649;19;20133;-53
2022/02/12 09:05:49;;;;;;;15.48;4.30;;;;;;;1.00;100.00;102301.31;7394342;19;20204;-54
2022/02/12 09:08:18;;;;;;;9.98;2.55;;;;;;;1.07;100.00;102316.47;7398654;19;20130;-50
2022/02/12 09:10:48;;;;;;;29.50;8.85;;;;;;;1.19;100.00;102317.75;7393422;19;20198;-54
2022/02/12 09:13:20;;;;;;;7.40;1.88;;;;;;;1.11;100.00;102321.16;7397414;19;20199;-57
2022/02/12 09:15:49;;;;;;;25.52;7.32;;;;;;;1.21;100.00;102318.84;7391630;19;20186;-56
2022/02/12 09:18:19;;;;;;;4.20;1.60;;;;;;;1.15;100.00;102335.09;7397411;19;20131;-51
2022/02/12 09:20:48;;;;;;;13.02;2.25;;;;;;;1.15;100.00;102327.47;7393781;19;20437;-54
2022/02/12 09:23:20;;;;;;;7.22;2.30;;;;;;;1.13;100.00;102328.94;7397259;19;20473;-54
2022/02/12 09:25:50;;;;;;;10.20;2.80;;;;;;;1.14;100.00;102326.56;7392445;19;20193;-54
2022/02/12 09:28:22;;;;;;;11.77;2.90;;;;;;;1.20;100.00;102323.75;7393771;19;20123;-55
2022/02/12 09:30:52;;;;;;;7.47;2.22;;;;;;;1.24;100.00;102330.06;7391632;19;20194;-52
2022/02/12 09:33:21;;;;;;;18.98;2.63;;;;;;;1.29;100.00;102328.91;7396499;19;20130;-54
2022/02/12 09:35:53;;;;;;;9.15;2.13;;;;;;;1.34;100.00;102335.38;7391666;19;20190;-54
2022/02/12 09:38:23;;;;;;;7.75;2.40;;;;;;;1.41;100.00;102327.66;7395838;19;20123;-55
2022/02/12 09:40:53;;;;;;;18.08;3.42;;;;;;;1.50;100.00;102334.44;7390544;19;20204;-56
2022/02/12 09:43:27;;;;;;;8.02;2.72;;;;;;;1.53;100.00;102327.13;7396578;19;20143;-57
2022/02/12 09:46:13;;;;;;;17.17;4.65;;;;;;;1.54;100.00;102336.56;7389626;19;20536;-54
2022/02/12 09:48:44;;;;;;;13.40;2.72;;;;;;;1.37;100.00;102332.28;7395361;19;20131;-57
2022/02/12 09:51:17;;;;;;;9.68;2.10;;;;;;;1.44;100.00;102334.72;7390438;19;20213;-57
2022/02/12 09:53:46;;;;;;;9.00;2.20;;;;;;;1.44;100.00;102330.50;7395668;19;20123;-55
2022/02/12 09:56:16;;;;;;;18.30;3.42;;;;;;;1.43;100.00;102335.44;7386824;19;20197;-58
2022/02/12 09:58:48;;;;;;;14.18;2.22;;;;;;;1.48;100.00;102332.63;7394618;19;20134;-57
2022/02/12 10:01:19;;;;;;;5.78;2.78;;;;;;;1.64;100.00;102333.31;7390112;19;20190;-56
2022/02/12 10:03:49;;;;;;;6.97;1.73;;;;;;;1.72;100.00;102337.56;7395318;19;20142;-57
2022/02/12 10:06:19;;;;;;;21.70;5.93;;;;;;;1.80;100.00;102338.34;7390132;19;20194;-58
2022/02/12 10:09:05;;;;;;;8.07;2.72;;;;;;;1.81;100.00;102332.50;7394281;19;20132;-55
2022/02/12 10:11:42;;;;;;;8.18;1.90;;;;;;;1.76;100.00;102339.69;7391446;19;20186;-59
2022/02/12 10:14:16;;;;;;;15.52;3.22;;;;;;;1.84;100.00;102333.72;7395211;19;20137;-54
2022/02/12 10:17:00;;;;;;;19.38;4.95;;;;;;;1.95;100.00;102334.81;7391708;19;20181;-54
2022/02/12 10:19:30;;;;;;;29.65;5.85;;;;;;;2.04;100.00;102336.50;7397917;19;20226;-54
2022/02/12 10:22:15;;;;;;;42.07;7.83;;;;;;;2.00;100.00;102332.75;7391381;19;20190;-53
2022/02/12 10:24:48;;;;;;;20.23;3.43;;;;;;;2.06;100.00;102330.84;7394659;19;20519;-51
2022/02/12 10:27:17;;;;;;;13.47;3.43;;;;;;;2.21;100.00;102323.81;7389058;19;20426;-54
2022/02/12 10:29:49;;;;;;;8.20;2.90;;;;;;;2.31;100.00;102327.31;7392750;19;20413;-55
2022/02/12 10:32:20;;;;;;;10.67;2.80;;;;;;;2.22;100.00;102335.84;7391056;19;20415;-55
2022/02/12 10:34:51;;;;;;;7.73;2.47;;;;;;;2.20;100.00;102328.78;7394540;19;20380;-55
2022/02/12 10:37:23;;;;;;;5.43;2.03;;;;;;;2.14;100.00;102334.13;7391208;19;20420;-53
2022/02/12 10:40:00;;;;;;;9.30;2.60;;;;;;;2.31;100.00;102332.41;7392031;19;20420;-54
2022/02/12 10:42:31;;;;;;;13.67;3.00;;;;;;;2.47;100.00;102334.84;7393251;19;20422;-56
2022/02/12 10:45:16;;;;;;;7.07;1.60;;;;;;;2.51;100.00;102332.72;7390816;19;20742;-51
2022/02/12 10:47:46;;;;;;;7.77;2.27;;;;;;;2.55;100.00;102331.41;7393724;19;20450;-55
2022/02/12 10:50:17;;;;;;;8.70;1.83;;;;;;;2.48;100.00;102322.25;7388704;19;20804;-57
2022/02/12 10:52:50;;;;;;;2.78;1.10;;;;;;;2.44;100.00;102325.22;7393061;19;20390;-53
2022/02/12 10:55:31;;;;;;;8.70;2.60;;;;;;;2.59;100.00;102317.31;7390880;19;20135;-53
2022/02/12 10:58:03;;;;;;;11.00;2.77;;;;;;;2.66;100.00;102312.09;7392748;19;20400;-53
2022/02/12 11:00:37;;;;;;;6.80;2.00;;;;;;;2.74;100.00;102297.53;7387883;19;21008;-53
2022/02/12 11:03:09;;;;;;;4.70;1.80;;;;;;;2.67;100.00;102301.16;7393567;19;20387;-55
2022/02/12 11:05:42;;;;;;;2.23;0.90;;;;;;;2.65;100.00;102306.09;7389360;19;20419;-52
2022/02/12 11:08:13;;;;;;;9.33;2.37;;;;;;;2.72;100.00;102296.50;7392804;19;20388;-54
2022/02/12 11:10:43;;;;;;;6.90;1.57;;;;;;;2.88;100.00;102288.69;7388304;19;20419;-55
2022/02/12 11:13:12;;;;;;;8.87;1.90;;;;;;;2.98;100.00;102281.19;7392643;19;20510;-53
2022/02/12 11:15:45;;;;;;;7.53;2.43;;;;;;;2.96;100.00;102297.97;7391794;19;20418;-54
2022/02/12 11:18:16;;;;;;;14.53;2.20;;;;;;;3.02;100.00;102280.72;7396820;19;20396;-51
2022/02/12 11:20:47;;;;;;;3.20;1.23;;;;;;;2.97;100.00;102279.38;7387285;19;20414;-52
2022/02/12 11:23:27;;;;;;;3.83;1.43;;;;;;;3.08;100.00;102278.75;7392291;19;20451;-53
2022/02/12 11:25:58;;;;;;;13.37;2.47;;;;;;;3.34;100.00;102277.81;7389616;19;20431;-53
2022/02/12 11:28:32;;;;;;;9.60;1.93;;;;;;;3.08;100.00;102291.50;7391470;19;20394;-51
2022/02/12 11:31:19;;;;;;;3.73;1.30;;;;;;;3.03;100.00;102290.16;7389222;19;20761;-51
2022/02/12 11:34:09;;;;;;;5.10;1.30;;;;;;;3.15;100.00;102281.91;7395558;19;20383;-50
2022/02/12 11:36:39;;;;;;;4.60;1.20;;;;;;;3.24;100.00;102270.94;7391782;19;20999;-49
2022/02/12 11:39:11;;;;;;;6.60;1.60;;;;;;;3.39;100.00;102270.63;7395822;19;20433;-56